createdAt,value
2018-02-20T00:02:15.654Z,76.55
2018-02-20T00:04:43.725Z,76.28
2018-02-20T00:07:11.159Z,76.33
2018-02-20T00:09:38.635Z,75.92
2018-02-20T00:12:06.097Z,75.86
2018-02-20T00:14:33.558Z,76.27
2018-02-20T00:17:01.027Z,76.15
2018-02-20T00:19:28.469Z,76.11
2018-02-20T00:21:55.901Z,76.95
2018-02-20T00:24:23.354Z,76.55
2018-02-20T00:26:50.815Z,76.08
2018-02-20T00:29:18.279Z,75.78
2018-02-20T00:31:45.718Z,75.45
2018-02-20T00:34:13.184Z,75.64
2018-02-20T00:36:40.637Z,75.50
2018-02-20T00:39:08.112Z,75.31
2018-02-20T00:41:35.565Z,75.51
2018-02-20T00:44:03.001Z,75.32
2018-02-20T00:46:30.469Z,75.68
2018-02-20T00:48:57.914Z,75.82
2018-02-20T00:51:25.382Z,76.82
2018-02-20T00:53:52.816Z,76.82
2018-02-20T00:56:20.261Z,76.55
2018-02-20T00:58:47.730Z,76.98
2018-02-20T01:01:15.187Z,76.96
2018-02-20T01:03:42.632Z,76.94
2018-02-20T01:06:10.095Z,77.30
2018-02-20T01:08:37.538Z,77.58
2018-02-20T01:11:05.002Z,78.04
2018-02-20T01:13:32.451Z,78.37
2018-02-20T01:15:59.900Z,78.76
2018-02-20T01:18:27.362Z,79.56
2018-02-20T01:20:54.814Z,78.67
2018-02-20T01:23:22.259Z,79.06
2018-02-20T01:25:49.707Z,79.21
2018-02-20T01:28:17.194Z,78.95
2018-02-20T01:30:44.639Z,79.24
2018-02-20T01:33:12.091Z,78.91
2018-02-20T01:35:39.556Z,79.85
2018-02-20T01:38:07.031Z,80.10
2018-02-20T01:40:34.494Z,80.12
2018-02-20T01:43:01.930Z,80.68
2018-02-20T01:45:29.369Z,80.31
2018-02-20T01:47:56.833Z,80.49
2018-02-20T01:50:24.285Z,80.86
2018-02-20T01:52:51.776Z,80.99
2018-02-20T01:55:19.219Z,81.23
2018-02-20T01:57:46.743Z,81.06
2018-02-20T02:00:14.221Z,80.79
2018-02-20T02:02:41.668Z,80.74
2018-02-20T02:05:09.334Z,80.85
2018-02-20T02:07:37.199Z,80.42
2018-02-20T02:10:04.697Z,80.95
2018-02-20T02:12:32.170Z,80.78
2018-02-20T02:14:59.631Z,80.99
2018-02-20T02:17:27.078Z,80.96
2018-02-20T02:19:54.534Z,80.76
2018-02-20T02:22:21.976Z,80.29
2018-02-20T02:24:49.426Z,80.23
2018-02-20T02:27:16.896Z,80.75
2018-02-20T02:29:44.378Z,80.70
2018-02-20T02:32:11.819Z,80.50
2018-02-20T02:34:39.299Z,80.16
2018-02-20T02:37:06.762Z,80.17
2018-02-20T02:39:34.206Z,80.22
2018-02-20T02:42:01.673Z,80.23
2018-02-20T02:44:29.127Z,80.79
2018-02-20T02:46:56.592Z,80.43
2018-02-20T02:49:24.044Z,79.96
2018-02-20T02:51:51.487Z,80.54
2018-02-20T02:54:18.956Z,80.44
2018-02-20T02:56:46.418Z,79.71
2018-02-20T02:59:13.903Z,79.74
2018-02-20T03:01:41.420Z,79.89
2018-02-20T03:04:08.832Z,79.45
2018-02-20T03:06:36.312Z,79.73
2018-02-20T03:09:03.768Z,79.76
2018-02-20T03:11:31.220Z,79.45
2018-02-20T03:13:58.714Z,79.62
2018-02-20T03:16:26.160Z,79.53
2018-02-20T03:18:53.617Z,79.01
2018-02-20T03:21:21.072Z,78.95
2018-02-20T03:23:48.523Z,79.11
2018-02-20T03:26:15.990Z,78.97
2018-02-20T03:28:43.443Z,78.81
2018-02-20T03:31:10.941Z,79.09
2018-02-20T03:33:38.398Z,78.60
2018-02-20T03:36:05.912Z,78.85
2018-02-20T03:38:33.386Z,79.07
2018-02-20T03:41:00.830Z,79.10
2018-02-20T03:43:28.287Z,78.98
2018-02-20T03:45:55.742Z,78.80
2018-02-20T03:48:23.210Z,78.65
2018-02-20T03:50:50.668Z,78.32
2018-02-20T03:53:18.128Z,78.81
2018-02-20T03:55:45.593Z,78.35
2018-02-20T03:58:13.054Z,78.41
2018-02-20T04:00:40.502Z,78.59
2018-02-20T04:03:07.975Z,78.72
2018-02-20T04:05:35.418Z,78.51
2018-02-20T04:08:02.883Z,77.90
2018-02-20T04:10:30.343Z,77.94
2018-02-20T04:12:57.782Z,77.86
2018-02-20T04:15:25.234Z,78.12
2018-02-20T04:17:52.683Z,78.28
2018-02-20T04:20:20.155Z,77.98
2018-02-20T04:22:47.613Z,78.18
2018-02-20T04:25:15.060Z,78.06
2018-02-20T04:27:42.516Z,77.80
2018-02-20T04:30:09.970Z,77.84
2018-02-20T04:32:37.422Z,78.17
2018-02-20T04:35:04.872Z,78.13
2018-02-20T04:37:32.326Z,78.01
2018-02-20T04:39:59.814Z,78.32
2018-02-20T04:42:27.274Z,77.44
2018-02-20T04:44:54.723Z,77.61
2018-02-20T04:47:22.226Z,77.47
2018-02-20T04:49:50.548Z,77.34
2018-02-20T04:52:18.008Z,77.56
2018-02-20T04:54:45.472Z,77.49
2018-02-20T04:57:12.947Z,77.46
2018-02-20T04:59:40.386Z,77.73
2018-02-20T05:02:08.540Z,77.28
2018-02-20T05:04:36.026Z,77.54
2018-02-20T05:07:03.491Z,76.33
2018-02-20T05:09:30.990Z,76.80
2018-02-20T05:11:58.451Z,77.70
2018-02-20T05:14:25.898Z,77.58
2018-02-20T05:16:53.342Z,77.93
2018-02-20T05:19:20.783Z,77.90
2018-02-20T05:21:48.316Z,78.00
2018-02-20T05:24:15.758Z,77.73
2018-02-20T05:26:43.198Z,77.64
2018-02-20T05:29:10.641Z,76.96
2018-02-20T05:31:38.124Z,77.38
2018-02-20T05:34:05.582Z,77.25
2018-02-20T05:36:33.034Z,76.93
2018-02-20T05:39:00.490Z,76.85
2018-02-20T05:41:27.931Z,76.19
2018-02-20T05:43:55.397Z,76.86
2018-02-20T05:46:22.842Z,77.21
2018-02-20T05:48:50.279Z,78.32
2018-02-20T05:51:17.743Z,78.19
2018-02-20T05:53:45.210Z,78.08
2018-02-20T05:56:12.688Z,76.99
2018-02-20T05:58:40.145Z,76.90
2018-02-20T06:01:07.591Z,77.46
2018-02-20T06:03:35.031Z,77.88
2018-02-20T06:06:02.515Z,78.44
2018-02-20T06:08:29.982Z,77.12
2018-02-20T06:10:57.445Z,76.89
2018-02-20T06:13:24.906Z,76.75
2018-02-20T06:15:52.354Z,77.71
2018-02-20T06:18:20.319Z,77.79
2018-02-20T06:20:47.785Z,78.15
2018-02-20T06:23:15.228Z,77.57
2018-02-20T06:25:42.698Z,77.73
2018-02-20T06:28:10.153Z,77.90
2018-02-20T06:30:37.619Z,78.31
2018-02-20T06:33:05.074Z,78.48
2018-02-20T06:35:32.527Z,78.24
2018-02-20T06:38:00.006Z,77.86
2018-02-20T06:40:27.442Z,79.52
2018-02-20T06:42:54.885Z,79.36
2018-02-20T06:45:22.399Z,78.83
2018-02-20T06:47:49.850Z,79.31
2018-02-20T06:50:17.346Z,79.40
2018-02-20T06:52:45.686Z,78.11
2018-02-20T06:55:13.166Z,77.67
2018-02-20T06:57:40.634Z,78.08
2018-02-20T07:00:08.128Z,76.98
2018-02-20T07:02:35.574Z,76.85
2018-02-20T07:05:03.017Z,77.20
2018-02-20T07:07:30.504Z,77.24
2018-02-20T07:09:57.943Z,76.35
2018-02-20T07:12:25.394Z,75.78
2018-02-20T07:14:52.847Z,75.42
2018-02-20T07:17:20.299Z,75.73
2018-02-20T07:19:47.773Z,75.76
2018-02-20T07:22:15.231Z,73.99
2018-02-20T07:24:42.673Z,73.63
2018-02-20T07:27:10.150Z,74.26
2018-02-20T07:29:37.590Z,73.65
2018-02-20T07:32:05.035Z,73.82
2018-02-20T07:34:32.493Z,74.66
2018-02-20T07:36:59.926Z,73.40
2018-02-20T07:39:27.419Z,74.63
2018-02-20T07:41:54.866Z,74.51
2018-02-20T07:44:22.328Z,74.05
2018-02-20T07:46:49.782Z,72.88
2018-02-20T07:49:17.256Z,74.50
2018-02-20T07:51:44.730Z,73.67
2018-02-20T07:54:12.173Z,72.50
2018-02-20T07:56:39.610Z,72.82
2018-02-20T07:59:07.063Z,72.64
2018-02-20T08:01:34.496Z,72.69
2018-02-20T08:04:01.938Z,71.77
2018-02-20T08:06:29.374Z,70.95
2018-02-20T08:08:56.822Z,71.10
2018-02-20T08:11:24.855Z,71.94
2018-02-20T08:13:53.355Z,71.93
2018-02-20T08:16:20.883Z,69.11
2018-02-20T08:18:48.331Z,70.31
2018-02-20T08:21:15.805Z,70.53
2018-02-20T08:23:43.286Z,70.48
2018-02-20T08:26:10.723Z,69.67
2018-02-20T08:28:38.206Z,70.12
2018-02-20T08:31:05.675Z,70.77
2018-02-20T08:33:33.134Z,70.87
2018-02-20T08:36:00.647Z,70.39
2018-02-20T08:38:28.237Z,70.95
2018-02-20T08:40:55.701Z,70.57
2018-02-20T08:43:23.246Z,71.06
2018-02-20T08:45:50.706Z,70.56
2018-02-20T08:48:18.195Z,69.95
2018-02-20T08:50:45.706Z,69.15
2018-02-20T08:53:13.678Z,69.23
2018-02-20T08:55:41.151Z,69.51
2018-02-20T08:58:08.653Z,68.63
2018-02-20T09:00:36.109Z,68.78
2018-02-20T09:03:03.557Z,67.02
2018-02-20T09:05:31.068Z,68.61
2018-02-20T09:07:58.551Z,66.89
2018-02-20T09:10:26.019Z,66.81
2018-02-20T09:12:53.477Z,67.15
2018-02-20T09:15:21.573Z,67.04
2018-02-20T09:17:49.041Z,66.96
2018-02-20T09:20:16.586Z,66.32
2018-02-20T09:22:44.036Z,66.76
2018-02-20T09:25:11.516Z,66.06
2018-02-20T09:27:39.101Z,64.65
2018-02-20T09:30:06.561Z,65.05
2018-02-20T09:32:34.013Z,64.35
2018-02-20T09:35:01.474Z,64.03
2018-02-20T09:37:28.936Z,64.16
2018-02-20T09:39:56.459Z,64.04
2018-02-20T09:42:23.955Z,63.67
2018-02-20T09:44:51.413Z,61.64
2018-02-20T09:47:18.874Z,60.94
2018-02-20T09:49:46.348Z,61.27
2018-02-20T09:52:13.803Z,61.53
2018-02-20T09:54:41.259Z,60.50
2018-02-20T09:57:08.721Z,61.55
2018-02-20T09:59:36.200Z,63.75
2018-02-20T10:02:03.646Z,61.96
2018-02-20T10:04:31.223Z,61.17
2018-02-20T10:06:58.702Z,60.58
2018-02-20T10:09:26.157Z,60.63
2018-02-20T10:11:53.593Z,59.38
2018-02-20T10:14:21.119Z,57.48
2018-02-20T10:16:48.586Z,57.59
2018-02-20T10:19:16.064Z,58.21
2018-02-20T10:21:43.587Z,58.15
2018-02-20T10:24:11.094Z,58.00
2018-02-20T10:26:38.910Z,59.75
2018-02-20T10:29:06.555Z,58.33
2018-02-20T10:31:34.074Z,59.78
2018-02-20T10:34:05.965Z,58.29
2018-02-20T10:36:33.662Z,59.02
2018-02-20T10:39:01.170Z,58.14
2018-02-20T10:41:28.625Z,58.00
2018-02-20T10:43:56.110Z,56.56
2018-02-20T10:46:23.559Z,57.22
2018-02-20T10:48:51.046Z,56.02
2018-02-20T10:51:18.502Z,56.28
2018-02-20T10:53:45.948Z,56.06
2018-02-20T10:56:13.890Z,55.13
2018-02-20T10:58:41.370Z,54.23
2018-02-20T11:01:08.910Z,56.00
2018-02-20T11:03:36.385Z,57.01
2018-02-20T11:06:03.928Z,54.96
2018-02-20T11:08:31.447Z,56.02
2018-02-20T11:10:58.890Z,53.29
2018-02-20T11:13:26.379Z,53.14
2018-02-20T11:15:53.967Z,54.84
2018-02-20T11:18:21.435Z,54.60
2018-02-20T11:20:49.280Z,55.25
2018-02-20T11:23:16.759Z,55.30
2018-02-20T11:25:44.260Z,54.80
2018-02-20T11:28:12.206Z,53.17
2018-02-20T11:30:39.666Z,54.44
2018-02-20T11:33:07.206Z,55.29
2018-02-20T11:35:34.661Z,55.37
2018-02-20T11:38:02.155Z,54.31
2018-02-20T11:40:29.613Z,54.43
2018-02-20T11:43:11.754Z,55.90
2018-02-20T11:45:39.249Z,55.79
2018-02-20T11:48:06.716Z,55.49
2018-02-20T11:50:34.218Z,55.63
2018-02-20T11:53:01.689Z,56.28
2018-02-20T11:55:29.143Z,56.42
2018-02-20T11:57:56.803Z,56.11
2018-02-20T12:00:24.472Z,56.03
2018-02-20T12:02:51.930Z,56.63
2018-02-20T12:05:19.391Z,57.60
2018-02-20T12:07:47.047Z,57.78
2018-02-20T12:10:15.082Z,57.84
2018-02-20T12:12:42.538Z,57.29
2018-02-20T12:15:09.993Z,57.04
2018-02-20T12:17:37.461Z,57.56
2018-02-20T12:20:04.961Z,58.07
2018-02-20T12:22:32.435Z,58.88
2018-02-20T12:25:00.716Z,58.55
2018-02-20T12:27:28.421Z,60.02
2018-02-20T12:29:55.866Z,59.68
2018-02-20T12:32:23.331Z,61.34
2018-02-20T12:34:50.873Z,59.72
2018-02-20T12:37:18.341Z,60.67
2018-02-20T12:39:45.802Z,58.71
2018-02-20T12:42:13.253Z,59.82
2018-02-20T12:44:40.691Z,59.78
2018-02-20T12:47:08.150Z,60.18
2018-02-20T12:49:35.634Z,61.88
2018-02-20T12:52:03.141Z,60.99
2018-02-20T12:54:30.585Z,61.53
2018-02-20T12:56:58.026Z,62.48
2018-02-20T12:59:25.546Z,63.00
2018-02-20T13:01:53.065Z,62.83
2018-02-20T13:04:20.540Z,63.77
2018-02-20T13:06:48.007Z,63.45
2018-02-20T13:09:15.469Z,63.10
2018-02-20T13:11:48.563Z,63.41
2018-02-20T13:14:16.046Z,64.34
2018-02-20T13:16:43.490Z,64.62
2018-02-20T13:19:10.958Z,64.79
2018-02-20T13:21:38.477Z,63.35
2018-02-20T13:24:05.952Z,64.18
2018-02-20T13:26:33.472Z,65.14
2018-02-20T13:29:00.901Z,65.49
2018-02-20T13:31:28.406Z,65.19
2018-02-20T13:33:55.898Z,65.14
2018-02-20T13:36:23.381Z,65.52
2018-02-20T13:38:51.846Z,66.17
2018-02-20T13:41:19.555Z,66.40
2018-02-20T13:43:49.524Z,65.88
2018-02-20T13:46:18.687Z,65.62
2018-02-20T13:48:46.217Z,65.99
2018-02-20T13:51:13.672Z,66.56
2018-02-20T13:53:41.145Z,67.29
2018-02-20T13:56:08.577Z,65.92
2018-02-20T13:58:36.063Z,65.56
2018-02-20T14:01:03.524Z,65.54
2018-02-20T14:03:30.972Z,64.82
2018-02-20T14:05:58.433Z,64.10
2018-02-20T14:08:26.087Z,63.83
2018-02-20T14:10:53.568Z,63.70
2018-02-20T14:13:21.028Z,64.03
2018-02-20T14:15:48.691Z,63.05
2018-02-20T14:18:16.166Z,62.75
2018-02-20T14:20:43.778Z,62.76
2018-02-20T14:23:11.320Z,62.67
2018-02-20T14:25:38.818Z,62.04
2018-02-20T14:28:06.377Z,61.48
2018-02-20T14:30:33.898Z,61.44
2018-02-20T14:33:01.462Z,60.67
2018-02-20T14:35:28.900Z,60.01
2018-02-20T14:37:56.366Z,59.58
2018-02-20T14:40:23.884Z,59.95
2018-02-20T14:42:51.359Z,61.01
2018-02-20T14:45:18.826Z,59.30
2018-02-20T14:47:46.292Z,58.79
2018-02-20T14:50:13.774Z,58.90
2018-02-20T14:52:41.206Z,59.02
2018-02-20T14:55:08.662Z,58.96
2018-02-20T14:57:36.113Z,59.88
2018-02-20T15:00:03.641Z,59.30
2018-02-20T15:02:44.728Z,60.39
2018-02-20T15:05:12.247Z,60.79
2018-02-20T15:07:39.934Z,60.57
2018-02-20T15:10:14.538Z,60.83
2018-02-20T15:12:42.482Z,61.25
2018-02-20T15:15:09.977Z,60.40
2018-02-20T15:17:37.468Z,62.07
2018-02-20T15:20:04.961Z,61.24
2018-02-20T15:22:32.408Z,60.93
2018-02-20T15:24:59.854Z,60.35
2018-02-20T15:27:27.348Z,60.41
2018-02-20T15:29:54.798Z,59.83
2018-02-20T15:32:22.258Z,60.29
2018-02-20T15:34:49.786Z,59.65
2018-02-20T15:37:17.272Z,60.21
2018-02-20T15:39:46.291Z,60.21
2018-02-20T15:42:14.431Z,60.07
2018-02-20T15:44:42.333Z,60.25
2018-02-20T15:47:09.863Z,61.39
2018-02-20T15:49:37.321Z,61.27
2018-02-20T15:52:05.080Z,62.83
2018-02-20T15:54:32.900Z,62.21
2018-02-20T15:57:00.354Z,62.80
2018-02-20T15:59:28.795Z,63.39
2018-02-20T16:01:56.286Z,63.50
2018-02-20T16:04:25.046Z,63.44
2018-02-20T16:06:52.537Z,62.71
2018-02-20T16:09:20.009Z,62.97
2018-02-20T16:11:47.455Z,63.63
2018-02-20T16:14:14.915Z,64.10
2018-02-20T16:16:42.479Z,64.08
2018-02-20T16:19:10.919Z,63.81
2018-02-20T16:21:39.011Z,64.00
2018-02-20T16:24:06.888Z,64.75
2018-02-20T16:26:34.346Z,64.18
2018-02-20T16:29:01.793Z,64.67
2018-02-20T16:31:31.948Z,64.60
2018-02-20T16:33:59.454Z,65.18
2018-02-20T16:36:27.834Z,66.00
2018-02-20T16:39:02.214Z,66.16
2018-02-20T16:41:29.891Z,66.09
2018-02-20T16:43:57.494Z,66.85
2018-02-20T16:46:25.057Z,67.33
2018-02-20T16:48:52.586Z,67.42
2018-02-20T16:51:20.337Z,66.69
2018-02-20T16:53:48.076Z,67.09
2018-02-20T16:56:15.970Z,66.49
2018-02-20T16:58:43.494Z,65.57
2018-02-20T17:01:11.302Z,65.05
2018-02-20T17:03:39.850Z,65.47
2018-02-20T17:06:07.309Z,65.66
2018-02-20T17:08:36.233Z,66.11
2018-02-20T17:11:03.746Z,65.62
2018-02-20T17:13:31.222Z,65.49
2018-02-20T17:15:58.759Z,65.59
2018-02-20T17:18:26.247Z,65.03
2018-02-20T17:20:53.740Z,65.63
2018-02-20T17:23:21.201Z,66.60
2018-02-20T17:25:48.671Z,66.67
2018-02-20T17:28:16.133Z,65.66
2018-02-20T17:30:43.613Z,66.60
2018-02-20T17:33:11.070Z,67.53
2018-02-20T17:35:38.527Z,68.03
2018-02-20T17:38:05.961Z,68.92
2018-02-20T17:40:33.452Z,69.09
2018-02-20T17:43:01.079Z,69.16
2018-02-20T17:45:29.559Z,70.55
2018-02-20T17:47:57.009Z,71.05
2018-02-20T17:50:24.464Z,72.42
2018-02-20T17:52:51.950Z,73.18
2018-02-20T17:55:19.434Z,73.77
2018-02-20T17:57:46.928Z,74.23
2018-02-20T18:00:14.374Z,74.46
2018-02-20T18:02:41.826Z,74.64
2018-02-20T18:05:09.379Z,73.88
2018-02-20T18:07:36.895Z,73.55
2018-02-20T18:10:04.374Z,73.52
2018-02-20T18:12:31.822Z,72.95
2018-02-20T18:14:59.263Z,72.35
2018-02-20T18:17:26.717Z,72.30
2018-02-20T18:19:54.192Z,72.06
2018-02-20T18:22:21.677Z,72.26
2018-02-20T18:24:49.122Z,71.74
2018-02-20T18:27:16.612Z,71.94
2018-02-20T18:29:44.099Z,72.22
2018-02-20T18:32:11.632Z,70.64
2018-02-20T18:34:39.080Z,70.28
2018-02-20T18:37:06.617Z,70.62
2018-02-20T18:39:34.683Z,70.80
2018-02-20T18:42:02.123Z,71.34
2018-02-20T18:44:29.583Z,70.78
2018-02-20T18:46:57.228Z,71.11
2018-02-20T18:49:24.737Z,69.72
2018-02-20T18:51:52.265Z,69.26
2018-02-20T18:54:19.740Z,70.68
2018-02-20T18:56:47.215Z,71.13
2018-02-20T18:59:15.722Z,71.66
2018-02-20T19:01:43.187Z,71.33
2018-02-20T19:04:10.663Z,70.76
2018-02-20T19:06:38.119Z,71.00
2018-02-20T19:09:05.642Z,70.28
2018-02-20T19:11:34.086Z,69.42
2018-02-20T19:14:02.539Z,69.76
2018-02-20T19:16:30.144Z,70.23
2018-02-20T19:18:57.707Z,69.92
2018-02-20T19:21:25.828Z,69.36
2018-02-20T19:23:53.484Z,69.33
2018-02-20T19:26:20.998Z,69.61
2018-02-20T19:28:48.541Z,69.49
2018-02-20T19:31:15.957Z,69.70
2018-02-20T19:33:46.471Z,69.00
2018-02-20T19:36:19.303Z,68.76
2018-02-20T19:38:53.882Z,69.08
2018-02-20T19:41:22.849Z,69.25
2018-02-20T19:43:50.639Z,68.85
2018-02-20T19:46:18.265Z,69.65
2018-02-20T19:48:47.355Z,69.14
2018-02-20T19:51:15.698Z,68.79
2018-02-20T19:53:44.216Z,68.76
2018-02-20T19:56:15.478Z,69.43
2018-02-20T19:58:46.049Z,68.19
2018-02-20T20:01:17.489Z,69.97
2018-02-20T20:03:47.165Z,69.87
2018-02-20T20:06:18.882Z,69.57
2018-02-20T20:11:29.836Z,69.33
2018-02-20T20:13:57.649Z,69.57
2018-02-20T20:19:04.911Z,69.60
2018-02-20T20:21:36.470Z,69.27
2018-02-20T20:24:05.506Z,69.37
2018-02-20T20:26:33.770Z,69.88
2018-02-20T20:31:59.310Z,69.88
2018-02-20T20:34:27.402Z,70.06
2018-02-20T20:37:00.011Z,69.83
2018-02-20T20:39:35.004Z,69.88
2018-02-20T20:42:08.980Z,69.99
2018-02-20T20:44:39.802Z,69.97
2018-02-20T20:47:09.361Z,70.39
2018-02-20T20:49:37.164Z,69.76
2018-02-20T20:52:05.758Z,71.08
2018-02-20T20:54:33.212Z,70.55
2018-02-20T20:57:00.703Z,71.64
2018-02-20T20:59:28.977Z,71.58
2018-02-20T21:02:00.230Z,72.27
2018-02-20T21:04:27.707Z,71.61
2018-02-20T21:06:55.789Z,72.28
2018-02-20T21:09:32.080Z,71.81
2018-02-20T21:12:01.298Z,72.09
2018-02-20T21:14:28.914Z,72.03
2018-02-20T21:17:00.052Z,72.12
2018-02-20T21:19:28.234Z,71.93
2018-02-20T21:21:59.771Z,72.26
2018-02-20T21:24:27.389Z,72.35
2018-02-20T21:26:55.192Z,72.25
2018-02-20T21:29:23.220Z,72.38
2018-02-20T21:31:55.253Z,72.30
2018-02-20T21:34:25.510Z,72.78
2018-02-20T21:36:53.693Z,72.70
2018-02-20T21:39:23.130Z,73.17
2018-02-20T21:41:52.897Z,73.60
2018-02-20T21:44:22.407Z,73.93
2018-02-20T21:46:49.954Z,74.16
2018-02-20T21:49:17.586Z,74.28
2018-02-20T21:51:50.352Z,74.11
2018-02-20T21:54:17.863Z,74.44
2018-02-20T21:56:45.325Z,74.56
2018-02-20T21:59:12.795Z,74.78
2018-02-20T22:01:40.292Z,74.94
2018-02-20T22:04:07.756Z,74.94
2018-02-20T22:06:35.258Z,74.34
2018-02-20T22:09:02.752Z,75.15
2018-02-20T22:11:30.965Z,75.09
2018-02-20T22:13:58.414Z,74.97
2018-02-20T22:16:25.867Z,74.67
2018-02-20T22:18:53.339Z,74.75
2018-02-20T22:21:20.844Z,74.70
2018-02-20T22:23:48.287Z,74.82
2018-02-20T22:26:15.743Z,74.98
2018-02-20T22:28:43.385Z,74.45
2018-02-20T22:31:11.065Z,74.92
2018-02-20T22:33:38.543Z,75.15
2018-02-20T22:36:05.997Z,75.05
2018-02-20T22:38:39.842Z,74.84
2018-02-20T22:41:07.295Z,75.41
2018-02-20T22:43:34.750Z,75.86
2018-02-20T22:46:02.207Z,75.70
2018-02-20T22:48:29.822Z,75.49
2018-02-20T22:50:57.278Z,75.88
2018-02-20T22:53:24.791Z,76.15
2018-02-20T22:55:52.291Z,76.45
2018-02-20T22:58:20.860Z,76.17
2018-02-20T23:00:49.427Z,76.19
2018-02-20T23:03:16.938Z,76.33
2018-02-20T23:05:44.404Z,76.29
2018-02-20T23:08:11.856Z,75.98
2018-02-20T23:10:40.296Z,75.96
2018-02-20T23:13:07.775Z,76.05
2018-02-20T23:15:35.227Z,76.63
2018-02-20T23:18:02.724Z,77.14
2018-02-20T23:20:30.246Z,77.53
2018-02-20T23:22:57.698Z,77.72
2018-02-20T23:25:25.154Z,77.82
2018-02-20T23:27:52.631Z,77.61
2018-02-20T23:30:20.084Z,77.60
2018-02-20T23:32:47.530Z,77.27
2018-02-20T23:35:14.987Z,76.75
2018-02-20T23:37:42.447Z,75.99
2018-02-20T23:40:09.986Z,75.99
2018-02-20T23:42:37.444Z,75.87
2018-02-20T23:45:04.914Z,75.11
2018-02-20T23:47:32.362Z,75.46
2018-02-20T23:49:59.806Z,75.23
2018-02-20T23:52:27.281Z,75.53
2018-02-20T23:54:54.727Z,74.97
2018-02-20T23:57:22.200Z,75.42
2018-02-20T23:59:49.673Z,75.35
